Sunday, June 17, 2018, 10:14 PM EDT
Back to Local

KFOK, The Gabreski Airport

Location: East Quogue, NY, United States Lat: 40.85
Local Time: 10:14 PM EDT ( 2:14 GMT) Lon: -72.617
Time Zone: US/Eastern Elev: 65 ft

Show me the last for .
Show Decoded

2018-06-17 21:53 METAR KFOK 180153Z 20004KT 10SM CLR 20/17 A3010 RMK AO2 SLP191 T02000167 =
2018-06-17 20:53 METAR KFOK 180053Z 19003KT 10SM CLR 20/16 A3009 RMK AO2 SLP190 T02000156 =
2018-06-17 19:53 METAR KFOK 172353Z 21006KT 10SM CLR 22/16 A3009 RMK AO2 SLP190 T02170156 10272
                 20217 58002 =
2018-06-17 18:53 METAR KFOK 172253Z 19006KT 10SM CLR 23/16 A3010 RMK AO2 SLP192 T02330161 =
2018-06-17 17:53 METAR KFOK 172153Z 20007KT 10SM CLR 24/14 A3010 RMK AO2 SLP192 T02440144 =
2018-06-17 16:53 METAR KFOK 172053Z 19007KT 10SM CLR 26/12 A3010 RMK AO2 SLP192 T02560117 53004 =
2018-06-17 15:53 METAR KFOK 171953Z 18006KT 10SM CLR 27/09 A3009 RMK AO2 SLP190 T02720094 =
2018-06-17 14:53 METAR KFOK 171853Z 17007KT 10SM CLR 26/11 A3010 RMK AO2 SLP190 T02610106 =
2018-06-17 13:53 METAR KFOK 171753Z 17008KT 10SM CLR 27/12 A3009 RMK AO2 SLP189 T02720122 10283
                 20222 58008 =
2018-06-17 12:53 METAR KFOK 171653Z 18006KT 10SM CLR 27/16 A3010 RMK AO2 SLP193 T02720156 =
2018-06-17 11:53 METAR KFOK 171553Z 19005KT 10SM CLR 27/16 A3011 RMK AO2 SLP196 T02670161 =
2018-06-17 10:53 METAR KFOK 171453Z 17006KT 10SM CLR 27/17 A3011 RMK AO2 SLP196 T02670167 53010 =
2018-06-17 09:53 METAR KFOK 171353Z 01003KT 10SM CLR 28/13 A3010 RMK AO2 SLP191 T02830128 =
2018-06-17 08:53 METAR KFOK 171253Z 04003KT 10SM CLR 26/13 A3009 RMK AO2 SLP187 T02610133 =
2018-06-17 07:53 METAR KFOK 171153Z 35003KT 10SM CLR 22/14 A3008 RMK AO2 SLP186 T02220144 10222
                 20106 51010 =
2018-06-17 06:53 METAR KFOK 171053Z AUTO VRB03KT 10SM CLR 16/14 A3008 RMK AO2 SLP185 T01610139 =
2018-06-17 05:53 METAR KFOK 170953Z AUTO 00000KT 10SM CLR 11/09 A3007 RMK AO2 SLP181 T01110089 =
2018-06-17 04:53 METAR KFOK 170853Z AUTO 00000KT 10SM CLR 11/08 A3005 RMK AO2 SLP175 T01060083
                 58001 =
2018-06-17 03:53 METAR KFOK 170753Z AUTO 00000KT 10SM CLR 11/08 A3005 RMK AO2 SLP176 T01110083 =
2018-06-17 02:53 METAR KFOK 170653Z AUTO 22003KT 10SM CLR 17/12 A3005 RMK AO2 SLP176 T01720122 =
2018-06-17 01:53 METAR KFOK 170553Z AUTO 23004KT 10SM CLR 18/12 A3005 RMK AO2 SLP176 T01780117
                 10217 20122 50002 =
2018-06-17 00:53 METAR KFOK 170453Z AUTO 00000KT 10SM CLR 13/09 A3007 RMK AO2 SLP182 T01280094
                 402830072 =
2018-06-16 23:53 METAR KFOK 170353Z AUTO 00000KT 10SM CLR 14/10 A3006 RMK AO2 SLP178 T01440100 =
2018-06-16 22:53 METAR KFOK 170253Z 23003KT 10SM CLR 18/12 A3005 RMK AO2 SLP174 T01830117 51011 =

Support USWX by starting your Amazon purchase here.